createdAt,value
2023-01-19T00:02:55.204Z,25.70
2023-01-19T00:07:05.357Z,25.70
2023-01-19T00:11:14.183Z,25.70
2023-01-19T00:15:22.209Z,27.10
2023-01-19T00:19:30.240Z,27.30
2023-01-19T00:23:38.061Z,28.70
2023-01-19T00:27:49.338Z,29.10
2023-01-19T00:31:56.940Z,27.40
2023-01-19T00:36:05.262Z,27.00
2023-01-19T00:40:15.404Z,25.90
2023-01-19T00:44:23.159Z,27.30
2023-01-19T00:48:31.008Z,27.20
2023-01-19T00:52:39.488Z,28.00
2023-01-19T00:56:47.244Z,29.20
2023-01-19T01:00:57.894Z,25.30
2023-01-19T01:05:06.462Z,27.80
2023-01-19T01:09:14.482Z,27.90
2023-01-19T01:13:26.344Z,27.60
2023-01-19T01:17:35.838Z,30.10
2023-01-19T01:21:47.043Z,20.60
2023-01-19T01:25:55.008Z,17.70
2023-01-19T01:30:02.580Z,16.70
2023-01-19T01:34:10.570Z,17.00
2023-01-19T01:38:18.320Z,13.00
2023-01-19T01:42:30.227Z,11.60
2023-01-19T01:46:37.884Z,11.50
2023-01-19T01:51:02.930Z,10.60
2023-01-19T01:55:11.466Z,9.00
2023-01-19T01:59:27.288Z,8.90
2023-01-19T02:03:36.287Z,7.60
2023-01-19T02:08:05.493Z,6.40
2023-01-19T02:12:31.199Z,6.40
2023-01-19T02:16:43.058Z,5.70
2023-01-19T02:20:57.807Z,5.30
2023-01-19T02:25:06.580Z,4.20
2023-01-19T02:29:16.007Z,4.60
2023-01-19T02:33:24.093Z,4.60
2023-01-19T02:37:32.933Z,4.80
2023-01-19T02:41:44.203Z,4.70
2023-01-19T02:45:52.603Z,4.60
2023-01-19T02:50:01.424Z,4.90
2023-01-19T02:54:33.345Z,4.10
2023-01-19T02:58:46.796Z,3.60
2023-01-19T03:03:03.534Z,4.10
2023-01-19T03:07:13.303Z,4.40
2023-01-19T03:11:21.296Z,4.40
2023-01-19T03:15:34.358Z,4.70
2023-01-19T03:19:44.165Z,4.80
2023-01-19T03:23:53.742Z,5.00
2023-01-19T03:28:02.051Z,4.70
2023-01-19T03:32:13.301Z,4.80
2023-01-19T03:36:23.250Z,5.10
2023-01-19T03:40:32.960Z,5.00
2023-01-19T03:44:42.381Z,5.00
2023-01-19T03:48:51.013Z,4.80
2023-01-19T03:53:08.808Z,5.40
2023-01-19T03:57:16.003Z,5.10
2023-01-19T04:01:23.953Z,5.70
2023-01-19T04:05:32.804Z,6.20
2023-01-19T04:09:40.563Z,5.80
2023-01-19T04:13:48.694Z,6.10
2023-01-19T04:17:56.352Z,6.20
2023-01-19T04:22:05.002Z,6.60
2023-01-19T04:26:13.098Z,6.90
2023-01-19T04:30:21.611Z,6.90
2023-01-19T04:34:30.310Z,6.60
2023-01-19T04:38:38.751Z,6.10
2023-01-19T04:42:48.531Z,7.80
2023-01-19T04:46:56.496Z,7.70
2023-01-19T04:51:04.139Z,8.30
2023-01-19T04:55:13.390Z,7.40
2023-01-19T04:59:21.695Z,6.50
2023-01-19T05:03:29.955Z,6.00
2023-01-19T05:07:37.862Z,5.70
2023-01-19T05:11:45.450Z,5.70
2023-01-19T05:15:52.896Z,5.90
2023-01-19T05:20:00.423Z,4.80
2023-01-19T05:24:10.740Z,4.90
2023-01-19T05:28:18.664Z,4.80
2023-01-19T05:32:26.045Z,5.00
2023-01-19T05:36:34.095Z,4.90
2023-01-19T05:40:41.843Z,5.20
2023-01-19T05:44:49.521Z,5.70
2023-01-19T05:48:57.799Z,5.60
2023-01-19T05:53:05.916Z,6.10
2023-01-19T05:57:13.417Z,7.00
2023-01-19T06:01:20.765Z,7.00
2023-01-19T06:05:29.019Z,7.20
2023-01-19T06:09:36.670Z,6.50
2023-01-19T06:13:44.558Z,7.60
2023-01-19T06:17:51.984Z,7.00
2023-01-19T06:22:00.117Z,7.20
2023-01-19T06:26:08.502Z,6.90
2023-01-19T06:30:17.351Z,6.90
2023-01-19T06:34:29.230Z,6.00
2023-01-19T06:38:39.516Z,8.50
2023-01-19T06:42:47.651Z,8.10
2023-01-19T06:47:15.317Z,5.90
2023-01-19T06:51:23.852Z,6.20
2023-01-19T06:55:31.797Z,7.30
2023-01-19T06:59:41.778Z,6.10
2023-01-19T07:03:49.299Z,6.10
2023-01-19T07:07:57.919Z,5.70
2023-01-19T07:12:07.069Z,6.20
2023-01-19T07:16:16.079Z,7.80
2023-01-19T07:20:24.565Z,9.50
2023-01-19T07:24:33.904Z,9.10
2023-01-19T07:28:42.046Z,6.90
2023-01-19T07:32:49.326Z,7.90
2023-01-19T07:36:58.735Z,10.00
2023-01-19T07:41:07.714Z,8.80
2023-01-19T07:45:16.413Z,8.10
2023-01-19T07:49:24.149Z,6.30
2023-01-19T07:53:31.477Z,5.00
2023-01-19T07:57:39.230Z,6.20
2023-01-19T08:01:46.857Z,6.80
2023-01-19T08:05:57.881Z,7.60
2023-01-19T08:10:06.058Z,6.90
2023-01-19T08:14:14.083Z,7.50
2023-01-19T08:18:22.141Z,8.00
2023-01-19T08:22:29.649Z,7.80
2023-01-19T08:26:39.181Z,7.30
2023-01-19T08:30:54.288Z,9.00
2023-01-19T08:35:02.361Z,7.00
2023-01-19T08:39:14.361Z,6.30
2023-01-19T08:43:22.278Z,7.80
2023-01-19T08:47:30.912Z,5.90
2023-01-19T08:51:38.451Z,7.90
2023-01-19T08:55:46.109Z,8.00
2023-01-19T08:59:53.985Z,8.30
2023-01-19T09:04:01.866Z,7.10
2023-01-19T09:08:11.070Z,6.20
2023-01-19T09:12:18.704Z,5.50
2023-01-19T09:16:27.303Z,6.30
2023-01-19T09:20:38.696Z,4.90
2023-01-19T09:24:46.433Z,6.40
2023-01-19T09:28:54.723Z,8.10
2023-01-19T09:33:06.618Z,8.80
2023-01-19T09:37:14.217Z,8.30
2023-01-19T09:41:25.140Z,7.10
2023-01-19T09:45:38.473Z,5.60
2023-01-19T09:49:48.824Z,5.80
2023-01-19T09:54:01.620Z,5.80
2023-01-19T09:58:13.204Z,5.70
2023-01-19T10:02:37.285Z,7.30
2023-01-19T10:06:46.389Z,6.70
2023-01-19T10:10:58.629Z,6.30
2023-01-19T10:15:14.336Z,5.50
2023-01-19T10:19:27.416Z,5.00
2023-01-19T10:23:45.173Z,5.20
2023-01-19T10:27:52.730Z,4.60
2023-01-19T10:32:05.810Z,4.40
2023-01-19T10:36:20.243Z,4.50
2023-01-19T10:40:35.772Z,4.20
2023-01-19T10:44:46.049Z,5.90
2023-01-19T10:48:55.285Z,6.10
2023-01-19T10:53:05.835Z,4.80
2023-01-19T10:57:21.857Z,5.10
2023-01-19T11:01:31.474Z,5.30
2023-01-19T11:05:42.238Z,3.80
2023-01-19T11:09:49.931Z,5.10
2023-01-19T11:14:11.625Z,4.90
2023-01-19T11:18:28.623Z,4.30
2023-01-19T11:22:37.214Z,3.50
2023-01-19T11:26:48.030Z,3.60
2023-01-19T11:31:00.750Z,4.90
2023-01-19T11:35:35.583Z,4.40
2023-01-19T11:39:51.740Z,4.30
2023-01-19T11:44:01.792Z,5.20
2023-01-19T11:48:20.360Z,5.70
2023-01-19T11:52:31.747Z,3.80
2023-01-19T11:56:39.525Z,5.20
2023-01-19T12:00:50.127Z,5.60
2023-01-19T12:05:00.611Z,5.00
2023-01-19T12:09:13.310Z,5.30
2023-01-19T12:13:26.838Z,6.30
2023-01-19T12:17:37.767Z,7.00
2023-01-19T12:21:48.275Z,6.20
2023-01-19T12:26:05.997Z,6.70
2023-01-19T12:30:21.168Z,6.00
2023-01-19T12:34:38.389Z,6.20
2023-01-19T12:38:53.976Z,5.40
2023-01-19T12:43:05.379Z,4.10
2023-01-19T12:47:24.530Z,5.70
2023-01-19T12:51:32.793Z,6.00
2023-01-19T12:55:47.527Z,4.90
2023-01-19T13:00:01.452Z,5.10
2023-01-19T13:04:31.000Z,3.90
2023-01-19T13:09:00.007Z,4.00
2023-01-19T13:13:20.242Z,4.10
2023-01-19T13:17:35.491Z,3.50
2023-01-19T13:21:45.641Z,3.60
2023-01-19T13:26:05.330Z,4.00
2023-01-19T13:30:19.197Z,3.40
2023-01-19T13:34:28.479Z,3.70
2023-01-19T13:38:36.368Z,3.40
2023-01-19T13:42:46.139Z,3.70
2023-01-19T13:46:54.626Z,3.50
2023-01-19T13:51:08.430Z,3.90
2023-01-19T13:55:19.133Z,3.40
2023-01-19T13:59:27.384Z,3.50
2023-01-19T14:03:37.230Z,3.40
2023-01-19T14:07:45.862Z,3.10
2023-01-19T14:16:29.942Z,3.50
2023-01-19T14:20:37.884Z,3.00
2023-01-19T14:24:46.007Z,3.70
2023-01-19T14:28:54.215Z,3.30
2023-01-19T14:33:01.864Z,3.30
2023-01-19T14:37:20.211Z,3.50
2023-01-19T14:41:31.446Z,3.90
2023-01-19T14:45:42.532Z,4.40
2023-01-19T14:49:51.774Z,5.40
2023-01-19T14:54:01.128Z,5.30
2023-01-19T14:58:14.065Z,5.10
2023-01-19T15:02:22.212Z,6.50
2023-01-19T15:06:29.764Z,5.90
2023-01-19T15:10:38.252Z,5.50
2023-01-19T15:14:46.277Z,6.30
2023-01-19T15:18:54.533Z,6.30
2023-01-19T15:23:02.727Z,6.40
2023-01-19T15:27:15.130Z,6.80
2023-01-19T15:31:24.721Z,6.90
2023-01-19T15:35:32.551Z,6.50
2023-01-19T15:39:41.770Z,9.80
2023-01-19T15:43:49.679Z,10.80
2023-01-19T15:47:57.273Z,11.90
2023-01-19T15:52:05.073Z,12.20
2023-01-19T15:56:17.367Z,12.80
2023-01-19T16:00:26.811Z,19.30
2023-01-19T16:04:34.732Z,18.80
2023-01-19T16:08:43.792Z,24.40
2023-01-19T16:12:52.586Z,33.10
2023-01-19T16:17:02.195Z,34.60
2023-01-19T16:21:09.979Z,36.90
2023-01-19T16:25:17.891Z,41.30
2023-01-19T16:29:26.593Z,42.20
2023-01-19T16:33:34.883Z,39.60
2023-01-19T16:37:43.107Z,43.40
2023-01-19T16:41:52.151Z,33.70
2023-01-19T16:46:02.125Z,32.50
2023-01-19T16:50:13.622Z,32.20
2023-01-19T16:54:23.469Z,33.90
2023-01-19T16:58:31.263Z,35.90
2023-01-19T17:02:39.653Z,38.80
2023-01-19T17:06:48.000Z,40.40
2023-01-19T17:10:56.439Z,39.00
2023-01-19T17:15:04.676Z,41.00
2023-01-19T17:19:16.739Z,38.70
2023-01-19T17:23:26.256Z,33.70
2023-01-19T17:27:36.023Z,33.30
2023-01-19T17:31:44.493Z,36.80
2023-01-19T17:35:53.784Z,34.50
2023-01-19T17:40:02.212Z,28.80
2023-01-19T17:44:12.492Z,26.80
2023-01-19T17:48:21.768Z,29.60
2023-01-19T17:52:29.669Z,31.10
2023-01-19T17:56:39.070Z,51.90
2023-01-19T18:00:46.456Z,98.80
2023-01-19T18:04:56.507Z,98.80
2023-01-19T18:09:05.417Z,104.80
2023-01-19T18:13:12.940Z,97.40
2023-01-19T18:17:21.061Z,76.90
2023-01-19T18:21:30.873Z,74.10
2023-01-19T18:25:39.964Z,61.80
2023-01-19T18:29:47.684Z,48.50
2023-01-19T18:33:55.559Z,32.80
2023-01-19T18:38:03.228Z,31.60
2023-01-19T18:42:11.209Z,30.00
2023-01-19T18:46:21.328Z,28.40
2023-01-19T18:50:29.288Z,36.10
2023-01-19T18:54:37.463Z,43.50
2023-01-19T18:58:45.931Z,43.00
2023-01-19T19:02:55.991Z,40.20
2023-01-19T19:07:03.921Z,39.90
2023-01-19T19:11:14.078Z,48.30
2023-01-19T19:15:22.270Z,46.60
2023-01-19T19:19:30.084Z,41.10
2023-01-19T19:23:40.096Z,46.50
2023-01-19T19:27:48.624Z,49.50
2023-01-19T19:31:56.989Z,49.50
2023-01-19T19:36:05.206Z,48.00
2023-01-19T19:40:15.434Z,46.70
2023-01-19T19:44:24.029Z,44.60
2023-01-19T19:48:31.722Z,38.50
2023-01-19T19:52:42.840Z,41.10
2023-01-19T19:56:52.495Z,39.40
2023-01-19T20:01:04.342Z,33.90
2023-01-19T20:05:12.995Z,31.30
2023-01-19T20:09:20.643Z,27.00
2023-01-19T20:13:30.111Z,22.80
2023-01-19T20:17:39.351Z,22.60
2023-01-19T20:21:46.926Z,24.40
2023-01-19T20:25:55.122Z,31.60
2023-01-19T20:30:04.009Z,33.90
2023-01-19T20:34:12.633Z,36.00
2023-01-19T20:38:22.812Z,30.80
2023-01-19T20:42:31.075Z,28.40
2023-01-19T20:46:39.148Z,30.70
2023-01-19T20:50:46.630Z,33.00
2023-01-19T20:54:55.897Z,35.60
2023-01-19T20:59:03.406Z,33.60
2023-01-19T21:03:11.536Z,32.70
2023-01-19T21:07:19.440Z,31.60
2023-01-19T21:11:27.906Z,35.20
2023-01-19T21:15:36.505Z,38.90
2023-01-19T21:19:45.261Z,35.70
2023-01-19T21:23:54.050Z,31.40
2023-01-19T21:28:02.039Z,33.70
2023-01-19T21:32:10.145Z,37.30
2023-01-19T21:36:18.107Z,39.30
2023-01-19T21:40:26.202Z,37.60
2023-01-19T21:44:33.963Z,32.60
2023-01-19T21:48:42.102Z,34.40
2023-01-19T21:52:50.393Z,34.10
2023-01-19T21:56:58.551Z,33.30
2023-01-19T22:01:14.213Z,26.30
2023-01-19T22:05:22.500Z,28.10
2023-01-19T22:09:31.754Z,28.70
2023-01-19T22:13:40.269Z,24.80
2023-01-19T22:17:48.458Z,20.70
2023-01-19T22:21:56.161Z,20.00
2023-01-19T22:26:03.772Z,18.70
2023-01-19T22:30:13.141Z,24.40
2023-01-19T22:34:21.189Z,27.50
2023-01-19T22:38:28.689Z,27.80
2023-01-19T22:42:36.400Z,28.00
2023-01-19T22:46:44.189Z,27.50
2023-01-19T22:50:51.698Z,29.50
2023-01-19T22:55:00.203Z,31.10
2023-01-19T22:59:08.191Z,31.20
2023-01-19T23:03:16.157Z,29.20
2023-01-19T23:07:23.941Z,27.50
2023-01-19T23:11:35.939Z,26.00
2023-01-19T23:15:43.637Z,24.70
2023-01-19T23:19:52.064Z,21.50
2023-01-19T23:24:00.785Z,21.60
2023-01-19T23:28:09.260Z,20.60
2023-01-19T23:32:17.680Z,20.80
2023-01-19T23:36:26.580Z,20.30
2023-01-19T23:40:34.457Z,20.40
2023-01-19T23:44:44.278Z,19.60
2023-01-19T23:48:52.152Z,18.70
2023-01-19T23:52:59.689Z,22.40
2023-01-19T23:57:07.620Z,24.20
